Cisne Branco — PWCB — position and weather

sailwx.info

Track history (hours):
 
Tides and Currents Weather Stations Pressure Air Temp Water Temp Dewpoint Dewpoint Depression Visibility Wind Speed Wind Dir Waves Ship Positions

Cisne Branco (Brazil)

Last reported at 2019-Jun-16 14:30 UTC. Time now 2019-Jun-16 14:34 UTC.
Position N 49°30' E 000°40'.

Length 78 m; draft 4.8 m.

MMSI: 710428000.

Date/timePositionNaut miles runAvg speedWind from/ knotsBaromVisibWave heightAir tempDewpointWater temp
2019-Jun-16 14:30N 49°30' E 000°40'4 7.3
2019-Jun-16 14:01N 49°31' E 000°46'4 8.0
2019-Jun-16 13:30N 49°27' E 000°49'3 6.3
2019-Jun-16 13:01N 49°24' E 000°49'2 4.6
2019-Jun-16 12:30N 49°25' E 000°52'3 6.6
2019-Jun-16 12:01N 49°28' E 000°52'2 4.9
2019-Jun-16 11:30N 49°29' E 000°55'2 4.0
2019-Jun-16 11:01N 49°27' E 000°56'3 6.5
2019-Jun-16 10:30N 49°24' E 000°55'3 6.0
2019-Jun-16 10:01N 49°21' E 000°56'3 5.4
2019-Jun-16 09:30N 49°22' E 001°00'3 5.3
2019-Jun-16 09:01N 49°25' E 001°01'2 3.9
2019-Jun-16 08:31N 49°26' E 001°03'  
Track history (hours):
 
Tides and Currents Weather Stations Pressure Air Temp Water Temp Dewpoint Dewpoint Depression Visibility Wind Speed Wind Dir Waves Ship Positions

Cisne Branco (Brazil)

Last reported at 2019-Jun-16 14:30 UTC. Time now 2019-Jun-16 14:34 UTC.
Position N 49°30' E 000°40'.

Length 78 m; draft 4.8 m.

MMSI: 710428000.

Date/timePositionNaut miles runAvg speedWind from/ knotsBaromVisibWave heightAir tempDewpointWater temp
2019-Jun-16 14:30N 49°30' E 000°40'4 7.3
2019-Jun-16 14:01N 49°31' E 000°46'4 8.0
2019-Jun-16 13:30N 49°27' E 000°49'3 6.3
2019-Jun-16 13:01N 49°24' E 000°49'2 4.6
2019-Jun-16 12:30N 49°25' E 000°52'3 6.6
2019-Jun-16 12:01N 49°28' E 000°52'2 4.9
2019-Jun-16 11:30N 49°29' E 000°55'2 4.0
2019-Jun-16 11:01N 49°27' E 000°56'3 6.5
2019-Jun-16 10:30N 49°24' E 000°55'3 6.0
2019-Jun-16 10:01N 49°21' E 000°56'3 5.4
2019-Jun-16 09:30N 49°22' E 001°00'3 5.3
2019-Jun-16 09:01N 49°25' E 001°01'2 3.9
2019-Jun-16 08:31N 49°26' E 001°03'  

Dump ship's entire track history